Time;durP1;ratioP1;P1;durP2;ratioP2;P2;SDS_P1;SDS_P2;PMS_P1;PMS_P2;Temp;Humidity;BMP_temperature;BMP_pressure;BME280_temperature;BME280_humidity;BME280_pressure;Samples;Min_cycle;Max_cycle;Signal;HPM_P1;HPM_P2
2021/04/04 00:00:21;;;;;;;17.42;6.25;;;6.90;92.60;;;;;;2581316;23;19996;-70
2021/04/04 00:01:22;;;;;;;14.73;5.88;;;6.90;93.00;;;;;;2581673;22;20000;-70
2021/04/04 00:02:24;;;;;;;13.63;5.70;;;6.90;93.00;;;;;;2579978;23;20062;-70
2021/04/04 00:03:24;;;;;;;18.77;5.72;;;6.90;92.80;;;;;;2581037;23;20045;-70
2021/04/04 00:04:25;;;;;;;20.52;7.25;;;6.90;93.20;;;;;;2580432;23;20416;-70
2021/04/04 00:05:26;;;;;;;19.67;5.90;;;6.90;93.40;;;;;;2568418;23;20008;-70
2021/04/04 00:06:27;;;;;;;15.52;6.40;;;6.90;93.60;;;;;;2580450;23;20007;-70
2021/04/04 00:07:28;;;;;;;21.70;6.38;;;6.80;93.60;;;;;;2580629;23;20019;-70
2021/04/04 00:08:28;;;;;;;16.33;6.47;;;6.80;93.60;;;;;;2580586;23;20023;-70
2021/04/04 00:09:29;;;;;;;17.48;7.28;;;6.90;94.10;;;;;;2581425;23;20070;-70
2021/04/04 00:10:29;;;;;;;18.95;5.82;;;6.90;94.20;;;;;;2580876;23;20012;-70
2021/04/04 00:11:30;;;;;;;19.75;6.20;;;6.90;94.30;;;;;;2580959;23;20000;-70
2021/04/04 00:12:30;;;;;;;16.90;6.43;;;6.90;94.70;;;;;;2580948;22;20379;-70
2021/04/04 00:13:32;;;;;;;17.02;6.80;;;6.90;94.80;;;;;;2581675;23;20024;-70
2021/04/04 00:14:33;;;;;;;20.33;6.53;;;6.90;95.20;;;;;;2581610;22;20027;-70
2021/04/04 00:15:34;;;;;;;16.38;6.55;;;6.90;95.40;;;;;;2581388;22;20028;-70
2021/04/04 00:16:34;;;;;;;17.50;5.85;;;6.90;96.10;;;;;;2581584;23;20070;-70
2021/04/04 00:17:35;;;;;;;18.10;6.10;;;6.90;96.40;;;;;;2581621;23;20058;-70
2021/04/04 00:18:36;;;;;;;18.52;5.93;;;6.90;96.10;;;;;;2581455;23;19996;-70
2021/04/04 00:19:36;;;;;;;17.70;5.95;;;6.90;95.90;;;;;;2581811;22;20370;-70
2021/04/04 00:20:37;;;;;;;16.17;6.47;;;6.90;95.80;;;;;;2581683;23;20006;-70
2021/04/04 00:21:38;;;;;;;12.82;5.75;;;6.90;96.20;;;;;;2581670;23;20079;-70
2021/04/04 00:22:38;;;;;;;22.85;6.00;;;6.90;96.20;;;;;;2580714;23;20000;-70
2021/04/04 00:23:39;;;;;;;17.98;5.78;;;6.90;95.90;;;;;;2581421;23;20000;-70
2021/04/04 00:24:40;;;;;;;13.82;5.22;;;6.90;96.40;;;;;;2580669;23;20007;-70
2021/04/04 00:25:40;;;;;;;17.50;5.85;;;7.00;96.30;;;;;;2580878;23;20444;-70
2021/04/04 00:26:41;;;;;;;17.70;6.25;;;7.00;95.90;;;;;;2581291;23;20059;-70
2021/04/04 00:27:42;;;;;;;18.70;5.78;;;7.00;96.00;;;;;;2581352;23;20054;-70
2021/04/04 00:28:43;;;;;;;15.15;6.05;;;7.00;96.20;;;;;;2581427;22;20282;-70
2021/04/04 00:29:43;;;;;;;23.75;7.05;;;7.00;96.10;;;;;;2580919;23;20011;-70
2021/04/04 00:30:44;;;;;;;15.50;5.68;;;7.00;96.40;;;;;;2568199;23;20062;-70
2021/04/04 00:31:45;;;;;;;20.42;6.65;;;7.00;96.00;;;;;;2580789;23;20019;-70
2021/04/04 00:32:47;;;;;;;21.20;6.68;;;7.00;96.50;;;;;;2580902;22;20012;-70
2021/04/04 00:33:48;;;;;;;20.23;6.03;;;7.00;96.30;;;;;;2581534;22;20008;-70
2021/04/04 00:34:49;;;;;;;21.42;6.22;;;7.10;96.70;;;;;;2581321;22;20095;-70
2021/04/04 00:35:50;;;;;;;20.77;6.18;;;7.10;97.00;;;;;;2581306;22;20198;-70
2021/04/04 00:36:51;;;;;;;24.60;7.22;;;7.10;97.10;;;;;;2581543;23;20000;-70
2021/04/04 00:37:53;;;;;;;20.88;6.45;;;7.10;97.30;;;;;;2580338;23;20042;-70
2021/04/04 00:38:53;;;;;;;19.42;6.47;;;7.10;97.90;;;;;;2580760;23;19992;-70
2021/04/04 00:39:54;;;;;;;19.80;6.38;;;7.10;97.60;;;;;;2581614;23;20000;-70
2021/04/04 00:40:55;;;;;;;15.25;5.95;;;7.10;97.90;;;;;;2581419;23;19996;-70
2021/04/04 00:41:56;;;;;;;23.38;7.25;;;7.10;97.80;;;;;;2580477;23;20138;-70
2021/04/04 00:42:57;;;;;;;16.25;6.55;;;7.10;98.30;;;;;;2579809;23;19992;-70
2021/04/04 00:43:58;;;;;;;20.67;6.97;;;7.10;98.70;;;;;;2581430;22;20016;-70
2021/04/04 00:44:58;;;;;;;15.00;5.88;;;7.10;98.70;;;;;;2581616;23;20000;-70
2021/04/04 00:45:59;;;;;;;21.23;6.43;;;7.10;98.10;;;;;;2581112;23;20002;-70
2021/04/04 00:46:59;;;;;;;18.77;6.60;;;7.20;98.50;;;;;;2580976;23;20015;-70
2021/04/04 00:48:01;;;;;;;17.67;5.68;;;7.20;98.00;;;;;;2581198;22;20316;-70
2021/04/04 00:49:02;;;;;;;17.15;5.82;;;7.20;98.00;;;;;;2581614;22;20059;-70
2021/04/04 00:50:05;;;;;;;19.20;6.32;;;7.20;97.60;;;;;;2581875;22;20031;-70
2021/04/04 00:51:06;;;;;;;19.30;6.72;;;7.20;97.90;;;;;;2581672;22;20036;-70
2021/04/04 00:52:07;;;;;;;17.70;5.43;;;7.20;97.90;;;;;;2581132;23;20019;-70
2021/04/04 00:53:08;;;;;;;21.48;5.68;;;7.20;97.40;;;;;;2579969;23;20008;-70
2021/04/04 00:54:09;;;;;;;16.70;5.30;;;7.20;96.80;;;;;;2580394;23;19996;-70
2021/04/04 00:55:11;;;;;;;18.85;5.68;;;7.30;96.90;;;;;;2580996;23;20004;-70
2021/04/04 00:56:13;;;;;;;20.05;6.30;;;7.30;96.50;;;;;;2580012;22;20084;-70
2021/04/04 00:57:14;;;;;;;16.27;5.60;;;7.30;96.40;;;;;;2581433;22;20424;-70
2021/04/04 00:58:15;;;;;;;17.95;5.90;;;7.30;96.40;;;;;;2581544;23;20007;-70
2021/04/04 00:59:16;;;;;;;19.63;5.90;;;7.30;96.60;;;;;;2581506;23;20004;-70
2021/04/04 01:00:24;;;;;;;19.23;6.35;;;7.30;96.50;;;;;;2581926;22;20004;-69
2021/04/04 01:01:26;;;;;;;19.80;5.93;;;7.30;97.00;;;;;;2581545;22;20004;-69
2021/04/04 01:02:27;;;;;;;23.45;7.22;;;7.30;97.40;;;;;;2580524;22;20004;-69
2021/04/04 01:03:28;;;;;;;19.50;6.68;;;7.30;97.50;;;;;;2581649;23;20000;-69
2021/04/04 01:04:28;;;;;;;18.20;6.75;;;7.30;97.90;;;;;;2576650;23;20014;-69
2021/04/04 01:05:35;;;;;;;18.10;5.93;;;7.40;97.90;;;;;;2581205;23;20024;-69
2021/04/04 01:06:35;;;;;;;19.48;5.47;;;7.40;97.00;;;;;;2580654;23;20031;-69
2021/04/04 01:07:38;;;;;;;16.05;6.97;;;7.40;96.70;;;;;;2580581;23;20471;-69
2021/04/04 01:08:40;;;;;;;19.05;5.97;;;7.40;97.40;;;;;;2567931;23;20058;-69
2021/04/04 01:09:40;;;;;;;15.70;5.68;;;7.40;97.40;;;;;;2580442;23;20348;-69
2021/04/04 01:10:44;;;;;;;18.30;6.22;;;7.40;97.10;;;;;;2581223;23;20004;-69
2021/04/04 01:12:08;;;;;;;17.15;6.00;;;7.40;97.40;;;;;;2580610;23;20014;-69
2021/04/04 01:13:31;;;;;;;20.27;6.35;;;7.40;97.80;;;;;;2572674;23;20119;-69
2021/04/04 01:14:38;;;;;;;22.35;6.30;;;7.40;97.60;;;;;;2574244;23;20008;-69
2021/04/04 01:15:43;;;;;;;16.65;6.95;;;7.40;97.80;;;;;;2580776;23;20028;-69
2021/04/04 01:16:47;;;;;;;23.42;7.00;;;7.40;98.10;;;;;;2581348;22;20004;-69
2021/04/04 01:17:50;;;;;;;24.25;6.82;;;7.40;98.00;;;;;;2583238;22;20003;-69
2021/04/04 01:18:58;;;;;;;20.25;6.82;;;7.40;98.00;;;;;;2582294;23;20004;-69
2021/04/04 01:20:10;;;;;;;24.45;7.45;;;7.40;97.90;;;;;;2580412;23;20001;-69
2021/04/04 01:21:19;;;;;;;21.70;6.55;;;7.40;97.80;;;;;;2581364;23;20036;-69
2021/04/04 01:22:57;;;;;;;20.23;6.60;;;7.40;97.50;;;;;;2579610;23;20000;-69
2021/04/04 01:24:11;;;;;;;19.48;6.05;;;7.40;97.70;;;;;;2581019;23;19996;-69
2021/04/04 01:25:25;;;;;;;17.50;5.75;;;7.40;97.50;;;;;;2581241;22;20019;-69
2021/04/04 01:26:40;;;;;;;16.92;6.22;;;7.40;97.30;;;;;;2582453;23;20389;-69
2021/04/04 01:27:50;;;;;;;18.38;6.18;;;7.40;97.70;;;;;;2581392;23;20008;-69
2021/04/04 01:28:52;;;;;;;15.75;6.00;;;7.40;97.50;;;;;;2581341;22;20000;-69
2021/04/04 01:29:54;;;;;;;23.02;7.22;;;7.40;97.40;;;;;;2580858;22;20400;-69
2021/04/04 01:30:55;;;;;;;20.48;7.63;;;7.50;97.60;;;;;;2580849;23;20004;-69
2021/04/04 01:31:56;;;;;;;21.05;6.43;;;7.50;97.70;;;;;;2567717;23;20009;-69
2021/04/04 01:32:59;;;;;;;21.58;6.88;;;7.50;97.40;;;;;;2579591;23;20008;-69
2021/04/04 01:34:00;;;;;;;21.85;6.57;;;7.50;97.50;;;;;;2580015;23;20039;-69
2021/04/04 01:35:01;;;;;;;22.15;6.57;;;7.50;97.60;;;;;;2580246;23;20431;-69
2021/04/04 01:36:05;;;;;;;28.98;7.72;;;7.50;97.60;;;;;;2581220;22;20301;-69
2021/04/04 01:37:09;;;;;;;18.63;6.57;;;7.50;97.60;;;;;;2581179;22;20004;-69
2021/04/04 01:38:12;;;;;;;21.33;6.93;;;7.50;97.60;;;;;;2581323;22;20036;-69
2021/04/04 01:39:14;;;;;;;21.27;6.55;;;7.50;97.90;;;;;;2581308;22;20003;-69
2021/04/04 01:40:17;;;;;;;14.88;5.47;;;7.50;97.40;;;;;;2581230;22;20447;-69
2021/04/04 01:41:21;;;;;;;23.40;7.35;;;7.60;96.80;;;;;;2581485;22;20012;-69
2021/04/04 01:42:22;;;;;;;27.73;7.20;;;7.60;97.20;;;;;;2580378;23;20094;-69
2021/04/04 01:43:25;;;;;;;19.23;5.78;;;7.60;97.50;;;;;;2581418;23;20015;-69
2021/04/04 01:44:26;;;;;;;20.90;6.20;;;7.60;97.30;;;;;;2580580;22;20383;-69
2021/04/04 01:45:27;;;;;;;33.80;7.38;;;7.60;97.10;;;;;;2581118;22;20020;-69
2021/04/04 01:46:29;;;;;;;20.20;6.30;;;7.60;96.80;;;;;;2581195;22;20039;-69
2021/04/04 01:47:30;;;;;;;20.63;6.68;;;7.60;96.40;;;;;;2581414;22;20058;-69
2021/04/04 01:48:32;;;;;;;22.45;6.75;;;7.60;96.70;;;;;;2581178;23;20024;-69
2021/04/04 01:49:33;;;;;;;18.83;6.82;;;7.60;97.10;;;;;;2581377;22;20001;-69
2021/04/04 01:50:34;;;;;;;22.00;5.82;;;7.60;95.90;;;;;;2581046;22;20000;-69
2021/04/04 01:51:36;;;;;;;14.65;5.20;;;7.60;95.70;;;;;;2581674;23;20175;-69
2021/04/04 01:52:38;;;;;;;17.02;5.78;;;7.60;95.50;;;;;;2580196;23;20005;-69
2021/04/04 01:53:41;;;;;;;17.80;5.65;;;7.60;95.30;;;;;;2581361;22;20081;-69
2021/04/04 01:54:42;;;;;;;16.92;5.68;;;7.60;95.20;;;;;;2581107;22;20063;-69
2021/04/04 01:55:45;;;;;;;14.02;5.43;;;7.70;94.90;;;;;;2581208;22;20000;-69
2021/04/04 01:56:46;;;;;;;22.08;6.22;;;7.70;95.20;;;;;;2581399;22;20014;-69
2021/04/04 01:57:50;;;;;;;19.80;5.63;;;7.70;95.10;;;;;;2580843;22;19996;-69
2021/04/04 01:58:52;;;;;;;18.55;6.05;;;7.70;95.20;;;;;;2581150;22;20003;-70
2021/04/04 01:59:53;;;;;;;18.63;6.22;;;7.70;95.30;;;;;;2581685;22;20416;-69
2021/04/04 02:00:54;;;;;;;17.58;5.57;;;7.70;95.10;;;;;;2581464;22;20004;-69
2021/04/04 02:01:55;;;;;;;20.77;6.35;;;7.70;95.10;;;;;;2583337;22;19992;-69
2021/04/04 02:02:57;;;;;;;17.25;5.55;;;7.70;95.20;;;;;;2581997;22;20000;-70
2021/04/04 02:04:00;;;;;;;19.65;6.18;;;7.70;95.40;;;;;;2583012;22;20079;-69
2021/04/04 02:05:04;;;;;;;26.17;6.30;;;7.70;95.50;;;;;;2582743;22;20001;-69
2021/04/04 02:06:05;;;;;;;23.17;5.78;;;7.70;95.30;;;;;;2582113;23;20066;-69
2021/04/04 02:07:06;;;;;;;15.95;5.07;;;7.70;95.20;;;;;;2581937;23;20038;-69
2021/04/04 02:08:08;;;;;;;19.70;5.30;;;7.70;94.50;;;;;;2583110;22;20004;-69
2021/04/04 02:09:11;;;;;;;22.63;5.72;;;7.70;94.50;;;;;;2582919;22;20000;-69
2021/04/04 02:10:14;;;;;;;24.60;6.28;;;7.70;94.80;;;;;;2583010;22;20008;-69
2021/04/04 02:11:22;;;;;;;18.13;5.32;;;7.70;94.80;;;;;;2582759;22;20031;-69
2021/04/04 02:12:23;;;;;;;26.15;6.00;;;7.70;94.80;;;;;;2582383;22;20006;-69
2021/04/04 02:13:26;;;;;;;21.05;5.85;;;7.70;94.90;;;;;;2582923;22;20005;-69
2021/04/04 02:14:27;;;;;;;19.70;6.30;;;7.70;95.10;;;;;;2582823;22;20026;-69
2021/04/04 02:15:30;;;;;;;23.42;5.72;;;7.70;94.90;;;;;;2582879;22;20341;-69
2021/04/04 02:16:32;;;;;;;15.20;4.82;;;7.70;94.60;;;;;;2583020;22;20004;-69
2021/04/04 02:17:34;;;;;;;17.23;5.43;;;7.70;93.90;;;;;;2582860;22;20455;-69
2021/04/04 02:18:35;;;;;;;17.00;5.75;;;7.70;94.30;;;;;;2582971;22;20005;-69
2021/04/04 02:19:37;;;;;;;16.00;5.07;;;7.70;94.40;;;;;;2582815;23;20008;-69
2021/04/04 02:20:39;;;;;;;26.35;6.22;;;7.70;94.20;;;;;;2582174;23;20000;-69
2021/04/04 02:21:46;;;;;;;18.83;6.22;;;7.70;94.70;;;;;;2581992;23;20011;-69
2021/04/04 02:22:48;;;;;;;25.40;6.00;;;7.70;94.90;;;;;;2582077;22;20008;-69
2021/04/04 02:23:49;;;;;;;16.60;6.30;;;7.70;94.70;;;;;;2582691;23;20114;-69
2021/04/04 02:24:50;;;;;;;16.90;5.32;;;7.70;94.90;;;;;;2582815;22;20428;-69
2021/04/04 02:25:58;;;;;;;15.52;5.72;;;7.70;94.60;;;;;;2582676;22;20009;-69
2021/04/04 02:27:00;;;;;;;16.58;5.75;;;7.70;94.90;;;;;;2583153;22;19992;-69
2021/04/04 02:28:01;;;;;;;24.60;5.97;;;7.70;95.10;;;;;;2582725;23;20559;-69
2021/04/04 02:29:03;;;;;;;16.65;5.30;;;7.70;94.90;;;;;;2582962;22;20412;-69
2021/04/04 02:30:05;;;;;;;22.98;5.90;;;7.70;94.60;;;;;;2583154;22;20004;-69
2021/04/04 02:31:12;;;;;;;16.20;5.90;;;7.70;94.70;;;;;;2583094;22;20396;-69
2021/04/04 02:32:14;;;;;;;17.55;5.45;;;7.70;94.90;;;;;;2583221;22;20381;-69
2021/04/04 02:33:20;;;;;;;17.73;6.30;;;7.70;94.60;;;;;;2583986;22;20000;-69
2021/04/04 02:34:24;;;;;;;25.45;6.22;;;7.70;95.20;;;;;;2582824;22;20004;-69
2021/04/04 02:35:34;;;;;;;17.27;6.22;;;7.70;95.20;;;;;;2584076;22;20000;-69
2021/04/04 02:36:35;;;;;;;24.75;5.82;;;7.70;95.40;;;;;;2582501;23;20014;-69
2021/04/04 02:37:38;;;;;;;22.00;5.82;;;7.70;94.90;;;;;;2583410;23;20061;-69
2021/04/04 02:38:42;;;;;;;15.82;5.80;;;7.70;94.80;;;;;;2583669;22;20079;-69
2021/04/04 02:39:50;;;;;;;17.90;5.35;;;7.80;94.60;;;;;;2583942;22;20000;-69
2021/04/04 02:40:52;;;;;;;16.42;5.43;;;7.80;93.80;;;;;;2583564;22;19996;-69
2021/04/04 02:41:55;;;;;;;14.27;5.15;;;7.80;93.80;;;;;;2583738;22;20008;-69
2021/04/04 02:42:56;;;;;;;18.83;5.57;;;7.80;93.40;;;;;;2582790;22;20008;-69
2021/04/04 02:43:59;;;;;;;24.45;5.13;;;7.80;93.40;;;;;;2583879;22;20007;-69
2021/04/04 02:45:01;;;;;;;26.05;5.88;;;7.80;93.80;;;;;;2583599;22;20393;-69
2021/04/04 02:46:06;;;;;;;14.95;5.00;;;7.80;94.50;;;;;;2583949;22;19996;-69
2021/04/04 02:47:11;;;;;;;16.55;5.75;;;7.80;94.20;;;;;;2583576;22;20007;-69
2021/04/04 02:48:16;;;;;;;21.23;6.43;;;7.80;94.20;;;;;;2583909;22;20000;-69
2021/04/04 02:49:19;;;;;;;14.30;5.82;;;7.80;94.20;;;;;;2583663;22;20001;-69
2021/04/04 02:50:22;;;;;;;19.92;6.07;;;7.80;94.30;;;;;;2583727;22;20010;-69
2021/04/04 02:51:31;;;;;;;24.13;6.40;;;7.90;94.10;;;;;;2583743;22;20004;-69
2021/04/04 02:52:36;;;;;;;24.38;6.35;;;7.80;93.50;;;;;;2583348;22;19996;-69
2021/04/04 02:53:45;;;;;;;18.42;5.50;;;7.80;93.30;;;;;;2583674;22;20036;-69
2021/04/04 02:54:47;;;;;;;17.83;5.80;;;7.80;93.50;;;;;;2583816;22;20423;-69
2021/04/04 02:55:49;;;;;;;24.33;5.78;;;7.80;93.40;;;;;;2583380;22;19996;-69
2021/04/04 02:56:50;;;;;;;19.15;5.93;;;7.80;93.60;;;;;;2583453;22;20500;-69
2021/04/04 02:57:52;;;;;;;19.48;5.97;;;7.80;93.50;;;;;;2583949;23;20035;-69
2021/04/04 02:58:59;;;;;;;16.30;4.57;;;7.80;93.60;;;;;;2583223;22;20000;-69
2021/04/04 03:00:03;;;;;;;16.85;6.10;;;7.80;93.50;;;;;;2583820;22;20004;-69
2021/04/04 03:01:05;;;;;;;16.13;5.35;;;7.80;93.40;;;;;;2583651;22;20042;-69
2021/04/04 03:02:07;;;;;;;16.55;5.43;;;7.80;93.40;;;;;;2581980;22;20089;-69
2021/04/04 03:03:10;;;;;;;20.27;5.95;;;7.80;93.70;;;;;;2582126;22;20000;-69
2021/04/04 03:04:12;;;;;;;19.77;5.93;;;7.80;93.50;;;;;;2582597;22;20000;-69
2021/04/04 03:05:13;;;;;;;22.15;7.03;;;7.80;93.50;;;;;;2581906;22;20111;-69
2021/04/04 03:06:16;;;;;;;31.05;5.88;;;7.80;94.00;;;;;;2582442;22;20043;-69
2021/04/04 03:07:19;;;;;;;15.75;5.85;;;7.80;93.30;;;;;;2581494;23;20067;-69
2021/04/04 03:08:20;;;;;;;17.23;4.53;;;7.80;93.30;;;;;;2582440;23;20000;-69
2021/04/04 03:09:22;;;;;;;19.50;5.53;;;7.80;93.10;;;;;;2582452;22;20004;-69
2021/04/04 03:10:23;;;;;;;17.10;5.60;;;7.80;93.00;;;;;;2582314;22;20000;-69
2021/04/04 03:11:25;;;;;;;16.20;5.25;;;7.80;92.80;;;;;;2581043;22;20027;-69
2021/04/04 03:12:27;;;;;;;22.40;6.05;;;7.90;92.60;;;;;;2581564;22;20016;-69
2021/04/04 03:13:29;;;;;;;20.13;6.18;;;7.90;92.80;;;;;;2581942;22;20004;-69
2021/04/04 03:14:30;;;;;;;22.40;6.00;;;7.90;93.10;;;;;;2581478;22;20007;-69
2021/04/04 03:15:32;;;;;;;19.38;5.75;;;7.80;93.40;;;;;;2582216;22;20004;-69
2021/04/04 03:16:35;;;;;;;20.23;6.68;;;7.80;93.30;;;;;;2581698;22;20004;-69
2021/04/04 03:17:39;;;;;;;24.38;5.82;;;7.80;93.10;;;;;;2581363;22;20023;-69
2021/04/04 03:18:42;;;;;;;18.27;6.28;;;7.80;93.00;;;;;;2582138;22;20004;-69
2021/04/04 03:19:44;;;;;;;19.63;5.80;;;7.90;93.60;;;;;;2581843;22;20046;-69
2021/04/04 03:20:46;;;;;;;14.27;5.72;;;7.90;94.10;;;;;;2582012;22;20011;-69
2021/04/04 03:21:48;;;;;;;16.23;5.85;;;7.90;94.30;;;;;;2581999;23;20000;-69
2021/04/04 03:22:51;;;;;;;19.70;6.47;;;7.90;94.20;;;;;;2580153;23;20004;-69
2021/04/04 03:23:52;;;;;;;24.13;6.75;;;7.90;94.20;;;;;;2581236;23;19996;-69
2021/04/04 03:24:54;;;;;;;21.65;6.45;;;7.90;94.40;;;;;;2581893;22;19992;-69
2021/04/04 03:25:56;;;;;;;19.60;5.93;;;7.90;94.30;;;;;;2582323;22;20022;-69
2021/04/04 03:26:57;;;;;;;21.25;6.32;;;7.90;94.40;;;;;;2581700;22;20012;-69
2021/04/04 03:27:59;;;;;;;15.85;5.13;;;7.90;93.90;;;;;;2581931;22;20383;-69
2021/04/04 03:29:00;;;;;;;15.48;5.43;;;7.90;93.90;;;;;;2582228;22;19999;-69
2021/04/04 03:30:06;;;;;;;23.52;7.07;;;7.90;94.20;;;;;;2582173;22;20004;-69
2021/04/04 03:31:09;;;;;;;22.17;7.18;;;7.90;94.30;;;;;;2581704;22;20000;-69
2021/04/04 03:32:10;;;;;;;19.27;6.50;;;7.90;94.60;;;;;;2581507;22;20007;-69
2021/04/04 03:33:15;;;;;;;15.27;5.38;;;7.90;94.60;;;;;;2581851;22;20004;-69
2021/04/04 03:34:17;;;;;;;21.48;5.80;;;7.90;94.30;;;;;;2582414;22;20000;-69
2021/04/04 03:35:17;;;;;;;16.98;6.03;;;7.90;94.00;;;;;;2581478;22;20062;-69
2021/04/04 03:36:21;;;;;;;22.90;6.07;;;7.90;94.20;;;;;;2581875;23;20004;-69
2021/04/04 03:37:23;;;;;;;17.42;6.47;;;7.90;94.00;;;;;;2581393;22;20022;-69
2021/04/04 03:38:26;;;;;;;24.95;6.90;;;7.90;94.20;;;;;;2582139;22;19996;-69
2021/04/04 03:39:27;;;;;;;17.67;5.45;;;7.80;94.30;;;;;;2582205;22;19996;-69
2021/04/04 03:40:28;;;;;;;22.70;6.85;;;7.90;94.20;;;;;;2581885;22;20001;-69
2021/04/04 03:41:31;;;;;;;17.83;6.88;;;7.90;94.20;;;;;;2582170;22;20038;-69
2021/04/04 03:42:32;;;;;;;23.13;7.22;;;7.90;94.30;;;;;;2579935;23;20000;-69
2021/04/04 03:43:34;;;;;;;18.77;6.25;;;7.90;94.40;;;;;;2568399;23;20008;-69
2021/04/04 03:44:39;;;;;;;16.20;4.82;;;7.90;94.70;;;;;;2581564;23;20006;-69
2021/04/04 03:45:40;;;;;;;18.70;6.10;;;7.90;94.30;;;;;;2581294;23;20316;-69
2021/04/04 03:46:41;;;;;;;17.60;5.78;;;7.90;93.90;;;;;;2556210;23;20032;-69
2021/04/04 03:47:43;;;;;;;16.67;6.93;;;7.90;94.10;;;;;;2568667;23;20000;-69
2021/04/04 03:48:46;;;;;;;24.83;6.68;;;7.90;94.40;;;;;;2582055;22;20079;-69
2021/04/04 03:49:47;;;;;;;17.35;5.90;;;7.90;94.70;;;;;;2582422;22;20004;-69
2021/04/04 03:50:48;;;;;;;20.25;6.20;;;7.90;94.30;;;;;;2582010;22;19996;-69
2021/04/04 03:51:53;;;;;;;20.25;6.35;;;7.90;94.40;;;;;;2581471;22;20498;-69
2021/04/04 03:52:54;;;;;;;21.95;6.70;;;7.90;94.40;;;;;;2581383;22;20007;-69
2021/04/04 03:53:57;;;;;;;19.02;7.53;;;7.90;94.40;;;;;;2581867;23;20035;-69
2021/04/04 03:54:58;;;;;;;19.88;6.57;;;7.90;94.40;;;;;;2581725;22;20008;-69
2021/04/04 03:56:02;;;;;;;20.17;6.47;;;7.90;94.20;;;;;;2581737;23;20000;-69
2021/04/04 03:57:04;;;;;;;18.75;5.88;;;7.90;94.00;;;;;;2581950;22;20072;-69
2021/04/04 03:58:06;;;;;;;21.75;6.50;;;7.90;93.90;;;;;;2582004;22;20007;-69
2021/04/04 03:59:10;;;;;;;16.73;6.88;;;7.90;94.20;;;;;;2581952;22;20335;-69
2021/04/04 04:00:12;;;;;;;18.73;6.10;;;7.90;94.30;;;;;;2581714;22;19996;-69
2021/04/04 04:01:14;;;;;;;19.05;6.35;;;7.90;94.10;;;;;;2582058;22;20004;-69
2021/04/04 04:02:15;;;;;;;23.77;6.22;;;7.90;94.30;;;;;;2580442;23;20004;-69
2021/04/04 04:03:17;;;;;;;18.75;6.35;;;7.90;94.30;;;;;;2581114;23;20047;-69
2021/04/04 04:04:19;;;;;;;15.45;5.53;;;7.90;94.10;;;;;;2581668;22;20061;-69
2021/04/04 04:05:23;;;;;;;17.70;6.10;;;7.90;94.20;;;;;;2581831;22;19996;-69
2021/04/04 04:06:24;;;;;;;20.02;6.60;;;8.00;94.40;;;;;;2581592;22;20009;-69
2021/04/04 04:07:25;;;;;;;17.92;6.10;;;7.90;94.60;;;;;;2581527;22;20458;-69
2021/04/04 04:08:27;;;;;;;15.07;5.60;;;8.00;94.20;;;;;;2581721;22;20028;-69
2021/04/04 04:09:29;;;;;;;17.25;6.20;;;7.90;93.50;;;;;;2581458;23;20008;-69
2021/04/04 04:10:31;;;;;;;18.13;6.38;;;8.00;93.80;;;;;;2581252;23;20359;-69
2021/04/04 04:11:32;;;;;;;22.65;6.03;;;8.00;93.90;;;;;;2581111;23;20472;-69
2021/04/04 04:12:34;;;;;;;21.17;4.93;;;8.00;93.90;;;;;;2579894;23;20012;-69
2021/04/04 04:13:36;;;;;;;20.00;5.70;;;8.00;93.50;;;;;;2582308;22;20423;-69
2021/04/04 04:14:37;;;;;;;18.17;5.53;;;7.90;93.40;;;;;;2581725;22;20316;-69
2021/04/04 04:15:37;;;;;;;18.48;5.13;;;8.00;93.50;;;;;;2582093;22;20008;-69
2021/04/04 04:16:39;;;;;;;13.43;5.15;;;8.00;93.40;;;;;;2581864;23;20075;-69
2021/04/04 04:17:42;;;;;;;20.58;6.05;;;8.00;93.30;;;;;;2581848;22;20045;-69
2021/04/04 04:18:44;;;;;;;17.23;4.90;;;8.00;93.10;;;;;;2581402;22;20004;-69
2021/04/04 04:19:44;;;;;;;14.60;4.70;;;8.00;93.10;;;;;;2581906;22;19992;-69
2021/04/04 04:20:47;;;;;;;19.15;5.20;;;7.90;92.70;;;;;;2581668;23;20034;-69
2021/04/04 04:21:48;;;;;;;21.15;5.38;;;7.90;92.60;;;;;;2581677;22;19996;-69
2021/04/04 04:22:50;;;;;;;15.55;5.20;;;7.90;92.40;;;;;;2580921;22;19992;-69
2021/04/04 04:23:50;;;;;;;20.27;5.22;;;8.00;92.20;;;;;;2581800;22;20028;-69
2021/04/04 04:24:52;;;;;;;16.05;4.57;;;8.00;92.30;;;;;;2581303;23;20004;-69
2021/04/04 04:25:53;;;;;;;14.88;4.95;;;8.00;92.60;;;;;;2581714;22;20016;-69
2021/04/04 04:26:55;;;;;;;21.83;6.03;;;8.00;92.30;;;;;;2581648;22;20455;-69
2021/04/04 04:27:57;;;;;;;14.45;5.13;;;8.00;92.40;;;;;;2581729;22;20050;-69
2021/04/04 04:28:58;;;;;;;16.08;5.32;;;8.00;92.30;;;;;;2582273;22;20344;-69
2021/04/04 04:30:01;;;;;;;18.92;4.95;;;8.00;92.00;;;;;;2581838;22;20054;-69
2021/04/04 04:31:06;;;;;;;15.90;5.55;;;8.00;92.00;;;;;;2581564;22;20012;-69
2021/04/04 04:32:08;;;;;;;17.65;5.00;;;8.00;92.00;;;;;;2581492;22;20083;-69
2021/04/04 04:33:13;;;;;;;15.93;5.28;;;8.00;92.10;;;;;;2581244;22;20071;-69
2021/04/04 04:34:15;;;;;;;19.67;5.70;;;8.00;92.20;;;;;;2581844;22;20087;-69
2021/04/04 04:35:17;;;;;;;20.00;5.53;;;7.90;91.90;;;;;;2581870;22;20075;-69
2021/04/04 04:36:20;;;;;;;16.10;5.15;;;7.90;92.00;;;;;;2581749;22;20008;-69
2021/04/04 04:37:22;;;;;;;18.27;5.55;;;7.90;91.90;;;;;;2581659;22;20061;-69
2021/04/04 04:38:23;;;;;;;15.73;5.43;;;7.90;92.40;;;;;;2580875;23;20028;-69
2021/04/04 04:39:25;;;;;;;13.00;4.70;;;7.90;91.50;;;;;;2580791;23;20008;-69
2021/04/04 04:40:27;;;;;;;18.95;5.53;;;7.90;92.40;;;;;;2581588;22;20070;-69
2021/04/04 04:41:32;;;;;;;18.98;5.97;;;7.90;92.30;;;;;;2581454;22;20008;-69
2021/04/04 04:42:40;;;;;;;14.82;4.85;;;7.90;92.10;;;;;;2580452;23;20360;-69
2021/04/04 04:43:44;;;;;;;16.17;4.55;;;7.90;92.20;;;;;;2580622;23;19996;-69
2021/04/04 04:44:47;;;;;;;18.85;5.00;;;7.90;92.20;;;;;;2581632;22;20007;-69
2021/04/04 04:45:48;;;;;;;11.80;4.35;;;7.90;91.80;;;;;;2581958;22;20023;-69
2021/04/04 04:46:49;;;;;;;14.20;4.10;;;7.90;91.90;;;;;;2580871;23;20019;-69
2021/04/04 04:47:53;;;;;;;16.98;5.13;;;7.90;92.10;;;;;;2580620;23;20032;-69
2021/04/04 04:48:54;;;;;;;16.83;4.60;;;7.90;92.60;;;;;;2581415;22;20407;-69
2021/04/04 04:49:55;;;;;;;15.00;3.92;;;7.90;92.30;;;;;;2581585;22;19996;-69
2021/04/04 04:50:55;;;;;;;13.88;4.25;;;7.90;91.80;;;;;;2581814;23;20004;-69
2021/04/04 04:51:56;;;;;;;15.55;4.47;;;7.90;91.80;;;;;;2581377;23;20000;-69
2021/04/04 04:53:02;;;;;;;16.55;5.30;;;7.90;91.40;;;;;;2581000;22;20000;-69
2021/04/04 04:54:04;;;;;;;15.48;4.43;;;7.90;91.60;;;;;;2581261;22;20015;-69
2021/04/04 04:55:07;;;;;;;20.10;5.53;;;7.80;91.70;;;;;;2581602;22;20008;-69
2021/04/04 04:56:09;;;;;;;15.48;4.60;;;7.90;91.70;;;;;;2581439;22;20075;-69
2021/04/04 04:57:11;;;;;;;16.08;5.07;;;7.80;91.50;;;;;;2581459;22;20412;-69
2021/04/04 04:58:12;;;;;;;20.10;5.38;;;7.90;91.40;;;;;;2581420;22;20004;-69
2021/04/04 04:59:14;;;;;;;13.70;4.80;;;7.80;90.80;;;;;;2581180;22;20316;-69
2021/04/04 05:00:15;;;;;;;18.55;5.82;;;7.80;90.70;;;;;;2581452;22;20401;-69
2021/04/04 05:01:20;;;;;;;18.73;5.32;;;7.80;90.40;;;;;;2581335;22;20056;-69
2021/04/04 05:02:21;;;;;;;14.32;4.63;;;7.80;90.20;;;;;;2580850;22;20001;-69
2021/04/04 05:03:23;;;;;;;15.15;4.80;;;7.80;90.70;;;;;;2581490;22;19996;-69
2021/04/04 05:04:25;;;;;;;16.15;4.97;;;7.80;90.20;;;;;;2581584;22;20057;-69
2021/04/04 05:05:26;;;;;;;17.27;4.55;;;7.80;90.40;;;;;;2580873;23;20004;-69
2021/04/04 05:06:27;;;;;;;22.30;4.60;;;7.70;90.40;;;;;;2580485;23;20075;-69
2021/04/04 05:07:29;;;;;;;19.80;4.88;;;7.70;90.20;;;;;;2581700;22;20004;-69
2021/04/04 05:08:33;;;;;;;18.92;4.95;;;7.70;90.20;;;;;;2581429;22;20416;-69
2021/04/04 05:09:34;;;;;;;14.20;5.20;;;7.70;90.50;;;;;;2580646;23;20091;-70
2021/04/04 05:10:37;;;;;;;17.08;5.15;;;7.70;89.40;;;;;;2580836;23;20011;-69
2021/04/04 05:11:43;;;;;;;23.48;5.78;;;7.70;90.20;;;;;;2580775;23;20004;-69
2021/04/04 05:12:56;;;;;;;17.23;4.88;;;7.70;90.30;;;;;;2568673;23;20015;-69
2021/04/04 05:13:57;;;;;;;24.83;5.30;;;7.70;90.20;;;;;;2581035;23;20097;-69
2021/04/04 05:15:01;;;;;;;14.30;4.95;;;7.70;90.30;;;;;;2581273;23;20003;-69
2021/04/04 05:16:02;;;;;;;15.38;5.70;;;7.70;90.60;;;;;;2580400;23;20080;-69
2021/04/04 05:17:03;;;;;;;15.60;5.68;;;7.70;90.60;;;;;;2580574;23;20062;-69
2021/04/04 05:18:05;;;;;;;14.55;4.93;;;7.70;90.30;;;;;;2580410;23;20114;-69
2021/04/04 05:19:11;;;;;;;18.45;5.55;;;7.70;90.50;;;;;;2580855;23;20040;-69
2021/04/04 05:20:13;;;;;;;17.63;5.03;;;7.70;90.70;;;;;;2580630;22;20328;-69
2021/04/04 05:21:24;;;;;;;16.60;5.50;;;7.70;91.10;;;;;;2580492;23;20007;-69
2021/04/04 05:22:25;;;;;;;16.38;5.15;;;7.70;91.20;;;;;;2569684;23;20035;-69
2021/04/04 05:23:26;;;;;;;15.38;5.20;;;7.70;91.00;;;;;;2580056;23;20099;-70
2021/04/04 05:24:28;;;;;;;22.95;5.40;;;7.60;91.00;;;;;;2581010;23;20088;-69
2021/04/04 05:25:30;;;;;;;11.32;4.88;;;7.60;90.90;;;;;;2581515;22;20003;-69
2021/04/04 05:26:38;;;;;;;23.83;5.78;;;7.60;90.80;;;;;;2581766;22;20004;-69